createdAt,value
2018-02-25T00:01:46.973Z,0.40
2018-02-25T00:04:18.112Z,0.30
2018-02-25T00:06:50.473Z,0.40
2018-02-25T00:09:24.598Z,0.30
2018-02-25T00:11:56.493Z,0.30
2018-02-25T00:14:27.692Z,0.40
2018-02-25T00:17:00.693Z,0.40
2018-02-25T00:19:34.093Z,0.30
2018-02-25T00:22:08.173Z,0.30
2018-02-25T00:24:43.433Z,0.20
2018-02-25T00:27:15.281Z,0.20
2018-02-25T00:29:46.952Z,0.20
2018-02-25T00:32:20.653Z,0.10
2018-02-25T00:34:51.993Z,0.30
2018-02-25T00:37:25.913Z,0.50
2018-02-25T00:39:58.393Z,0.50
2018-02-25T00:42:33.412Z,0.40
2018-02-25T00:45:07.112Z,0.40
2018-02-25T00:47:41.332Z,0.10
2018-02-25T00:50:13.472Z,0.20
2018-02-25T00:52:48.932Z,0.10
2018-02-25T00:55:21.713Z,0.10
2018-02-25T00:57:56.433Z,0.20
2018-02-25T01:00:28.712Z,0.20
2018-02-25T01:03:03.454Z,0.10
2018-02-25T01:05:40.472Z,0.00
2018-02-25T01:08:12.572Z,0.00
2018-02-25T01:10:45.252Z,-0.10
2018-02-25T01:13:16.613Z,0.10
2018-02-25T01:15:47.532Z,0.10
2018-02-25T01:18:20.732Z,0.10
2018-02-25T01:20:52.613Z,0.00
2018-02-25T01:23:24.672Z,-0.10
2018-02-25T01:25:56.113Z,-0.20
2018-02-25T01:28:28.172Z,-0.20
2018-02-25T01:31:02.092Z,-0.20
2018-02-25T01:33:33.012Z,-0.10
2018-02-25T01:36:04.872Z,-0.20
2018-02-25T01:38:35.492Z,-0.30
2018-02-25T01:41:06.492Z,-0.40
2018-02-25T01:43:40.973Z,-0.30
2018-02-25T01:46:12.472Z,-0.30
2018-02-25T01:48:44.172Z,-0.50
2018-02-25T01:51:15.832Z,-0.60
2018-02-25T01:53:47.073Z,-0.60
2018-02-25T01:56:21.080Z,-0.70
2018-02-25T01:58:53.973Z,-0.80
2018-02-25T02:01:26.132Z,-0.50
2018-02-25T02:03:58.092Z,-0.60
2018-02-25T02:06:30.532Z,-0.50
2018-02-25T02:09:02.212Z,-0.50
2018-02-25T02:11:34.594Z,-0.50
2018-02-25T02:14:13.314Z,-0.40
2018-02-25T02:16:44.252Z,-0.50
2018-02-25T02:19:17.513Z,-0.50
2018-02-25T02:21:49.301Z,-0.40
2018-02-25T02:24:25.473Z,-0.20
2018-02-25T02:26:58.953Z,-0.10
2018-02-25T02:29:30.833Z,-0.20
2018-02-25T02:32:06.534Z,-0.20
2018-02-25T02:34:42.492Z,-0.20
2018-02-25T02:37:14.993Z,-0.30
2018-02-25T02:39:46.953Z,-0.30
2018-02-25T02:42:18.192Z,-0.50
2018-02-25T02:44:49.978Z,-0.40
2018-02-25T02:47:20.915Z,-0.30
2018-02-25T02:49:52.352Z,-0.30
2018-02-25T02:52:25.334Z,-0.50
2018-02-25T02:54:59.233Z,-0.60
2018-02-25T02:57:30.173Z,-0.60
2018-02-25T03:00:03.892Z,-0.40
2018-02-25T03:02:35.233Z,-0.40
2018-02-25T03:05:06.373Z,-0.20
2018-02-25T03:07:37.754Z,-0.20
2018-02-25T03:10:09.272Z,-0.30
2018-02-25T03:12:40.712Z,-0.20
2018-02-25T03:15:12.895Z,-0.30
2018-02-25T03:17:45.773Z,-0.50
2018-02-25T03:20:17.936Z,-0.40
2018-02-25T03:22:49.992Z,-0.50
2018-02-25T03:25:21.140Z,-0.40
2018-02-25T03:27:51.973Z,-0.50
2018-02-25T03:30:23.134Z,-0.70
2018-02-25T03:32:55.692Z,-0.80
2018-02-25T03:35:28.474Z,-0.60
2018-02-25T03:37:58.692Z,-0.60
2018-02-25T03:40:31.794Z,-0.40
2018-02-25T03:43:05.073Z,-0.60
2018-02-25T03:45:37.652Z,-0.70
2018-02-25T03:48:15.492Z,-0.50
2018-02-25T03:50:49.056Z,-0.50
2018-02-25T03:53:22.132Z,-0.70
2018-02-25T03:55:55.432Z,-0.90
2018-02-25T03:58:26.973Z,-0.80
2018-02-25T04:00:59.492Z,-0.20
2018-02-25T04:03:34.493Z,-0.90
2018-02-25T04:06:06.875Z,-1.00
2018-02-25T04:08:39.633Z,-1.20
2018-02-25T04:11:13.652Z,-1.10
2018-02-25T04:13:45.412Z,-1.00
2018-02-25T04:16:18.813Z,-0.90
2018-02-25T04:18:50.472Z,-0.90
2018-02-25T04:21:22.333Z,-1.00
2018-02-25T04:23:53.973Z,-1.00
2018-02-25T04:26:25.432Z,-1.20
2018-02-25T04:28:58.013Z,-1.40
2018-02-25T04:31:35.172Z,-1.30
2018-02-25T04:34:09.192Z,-1.30
2018-02-25T04:36:41.373Z,-0.90
2018-02-25T04:39:19.512Z,-0.90
2018-02-25T04:41:52.452Z,-0.90
2018-02-25T04:44:23.533Z,-1.00
2018-02-25T04:46:55.673Z,-1.20
2018-02-25T04:49:26.792Z,-1.40
2018-02-25T04:51:58.454Z,-1.40
2018-02-25T04:54:28.792Z,-1.50
2018-02-25T04:57:06.673Z,-1.80
2018-02-25T04:59:37.932Z,-1.90
2018-02-25T05:02:10.192Z,-2.00
2018-02-25T05:04:48.293Z,-1.80
2018-02-25T05:07:20.758Z,-1.80
2018-02-25T05:09:52.014Z,-1.70
2018-02-25T05:12:23.055Z,-1.40
2018-02-25T05:14:54.493Z,-1.20
2018-02-25T05:17:24.634Z,-1.30
2018-02-25T05:19:57.539Z,-1.50
2018-02-25T05:22:30.552Z,-1.80
2018-02-25T05:25:02.860Z,-1.80
2018-02-25T05:27:34.413Z,-1.70
2018-02-25T05:30:08.432Z,-1.80
2018-02-25T05:32:44.493Z,-1.70
2018-02-25T05:35:18.392Z,-1.70
2018-02-25T05:37:50.253Z,-1.70
2018-02-25T05:40:23.433Z,-1.80
2018-02-25T05:42:56.732Z,-1.80
2018-02-25T05:45:34.012Z,-2.30
2018-02-25T05:48:05.512Z,-2.30
2018-02-25T05:50:36.812Z,-2.20
2018-02-25T05:53:08.073Z,-2.20
2018-02-25T05:55:39.913Z,-2.20
2018-02-25T05:58:14.952Z,-2.00
2018-02-25T06:00:51.113Z,-2.00
2018-02-25T06:03:24.933Z,-1.80
2018-02-25T06:05:55.976Z,-1.90
2018-02-25T06:08:27.612Z,-2.00
2018-02-25T06:10:58.772Z,-2.00
2018-02-25T06:13:31.032Z,-2.20
2018-02-25T06:16:02.532Z,-2.20
2018-02-25T06:18:34.432Z,-2.50
2018-02-25T06:21:06.553Z,-2.50
2018-02-25T06:23:41.854Z,-2.40
2018-02-25T06:26:14.012Z,-2.30
2018-02-25T06:28:48.012Z,-2.30
2018-02-25T06:31:19.534Z,-2.40
2018-02-25T06:33:50.817Z,-2.40
2018-02-25T06:36:22.794Z,-2.30
2018-02-25T06:38:55.872Z,-2.40
2018-02-25T06:41:29.672Z,-2.40
2018-02-25T06:44:01.633Z,-2.30
2018-02-25T06:46:34.112Z,-2.20
2018-02-25T06:49:05.852Z,-2.40
2018-02-25T06:51:37.313Z,-2.30
2018-02-25T06:54:19.212Z,-2.30
2018-02-25T06:56:53.015Z,-2.30
2018-02-25T06:59:26.612Z,-2.50
2018-02-25T07:01:59.692Z,-2.50
2018-02-25T07:04:31.653Z,-2.40
2018-02-25T07:07:06.194Z,-2.30
2018-02-25T07:09:43.253Z,-2.50
2018-02-25T07:12:14.813Z,-2.50
2018-02-25T07:14:47.173Z,-2.30
2018-02-25T07:17:19.352Z,-2.40
2018-02-25T07:19:54.494Z,-2.40
2018-02-25T07:22:27.373Z,-2.30
2018-02-25T07:24:59.652Z,-2.60
2018-02-25T07:27:31.812Z,-2.50
2018-02-25T07:30:03.513Z,-2.50
2018-02-25T07:32:35.632Z,-2.50
2018-02-25T07:35:07.293Z,-2.50
2018-02-25T07:37:40.552Z,-2.50
2018-02-25T07:40:13.872Z,-2.40
2018-02-25T07:42:45.632Z,-2.30
2018-02-25T07:45:21.533Z,-2.30
2018-02-25T07:47:54.672Z,-2.40
2018-02-25T07:50:27.852Z,-2.40
2018-02-25T07:52:59.413Z,-2.40
2018-02-25T07:55:30.532Z,-2.30
2018-02-25T07:58:02.913Z,-2.30
2018-02-25T08:00:39.294Z,-2.30
2018-02-25T08:03:11.673Z,-2.30
2018-02-25T08:05:42.552Z,-2.10
2018-02-25T08:08:13.433Z,-1.90
2018-02-25T08:10:46.412Z,-1.90
2018-02-25T08:13:18.792Z,-1.60
2018-02-25T08:15:50.752Z,-1.40
2018-02-25T08:18:24.354Z,-1.70
2018-02-25T08:20:55.698Z,-1.90
2018-02-25T08:23:29.512Z,-1.80
2018-02-25T08:26:01.252Z,-1.80
2018-02-25T08:28:32.714Z,-1.60
2018-02-25T08:31:05.096Z,-1.70
2018-02-25T08:33:36.733Z,-1.70
2018-02-25T08:36:11.152Z,-1.50
2018-02-25T08:38:42.911Z,-1.60
2018-02-25T08:41:15.993Z,-1.70
2018-02-25T08:43:48.994Z,-1.50
2018-02-25T08:46:25.252Z,-1.10
2018-02-25T08:48:58.035Z,-1.20
2018-02-25T08:51:29.392Z,-0.80
2018-02-25T08:54:00.933Z,-0.80
2018-02-25T08:56:32.552Z,-0.80
2018-02-25T08:59:03.633Z,-0.90
2018-02-25T09:01:37.232Z,-0.90
2018-02-25T09:04:11.432Z,-0.80
2018-02-25T09:06:46.792Z,-0.90
2018-02-25T09:09:18.772Z,-0.80
2018-02-25T09:11:49.992Z,-0.90
2018-02-25T09:14:23.393Z,-1.10
2018-02-25T09:16:56.172Z,-1.00
2018-02-25T09:19:27.912Z,-0.90
2018-02-25T09:22:01.934Z,-0.70
2018-02-25T09:24:34.412Z,-0.70
2018-02-25T09:27:05.452Z,-0.70
2018-02-25T09:29:36.892Z,-0.50
2018-02-25T09:32:09.152Z,-0.30
2018-02-25T09:34:41.236Z,-0.30
2018-02-25T09:37:12.452Z,-0.20
2018-02-25T09:39:43.515Z,-0.20
2018-02-25T09:42:19.872Z,0.00
2018-02-25T09:44:52.352Z,0.00
2018-02-25T09:47:24.111Z,0.00
2018-02-25T09:49:56.172Z,0.10
2018-02-25T09:52:29.351Z,0.10
2018-02-25T09:55:03.074Z,0.10
2018-02-25T09:57:34.512Z,-0.10
2018-02-25T10:00:05.952Z,-0.30
2018-02-25T10:02:38.632Z,-0.50
2018-02-25T10:05:10.292Z,-0.40
2018-02-25T10:07:43.172Z,-0.40
2018-02-25T10:10:16.258Z,-0.30
2018-02-25T10:12:52.413Z,-0.50
2018-02-25T10:15:24.551Z,-0.60
2018-02-25T10:18:01.172Z,-0.60
2018-02-25T10:20:34.032Z,-0.60
2018-02-25T10:23:06.012Z,-0.70
2018-02-25T10:25:37.252Z,-0.80
2018-02-25T10:28:09.313Z,-0.60
2018-02-25T10:30:40.452Z,-0.50
2018-02-25T10:33:10.692Z,-0.60
2018-02-25T10:35:42.533Z,-0.50
2018-02-25T10:38:14.193Z,-0.60
2018-02-25T10:40:49.733Z,-0.60
2018-02-25T10:43:22.832Z,-0.30
2018-02-25T10:45:54.392Z,-0.20
2018-02-25T10:48:26.232Z,-0.20
2018-02-25T10:51:02.091Z,-0.30
2018-02-25T10:53:34.472Z,-0.40
2018-02-25T10:56:06.432Z,-0.30
2018-02-25T10:58:38.593Z,0.00
2018-02-25T11:01:14.651Z,0.00
2018-02-25T11:03:52.038Z,0.20
2018-02-25T11:06:23.593Z,0.20
2018-02-25T11:08:54.112Z,0.00
2018-02-25T11:11:26.993Z,0.00
2018-02-25T11:13:59.772Z,0.00
2018-02-25T11:16:32.271Z,0.00
2018-02-25T11:19:04.514Z,0.20
2018-02-25T11:21:40.492Z,0.20
2018-02-25T11:24:12.631Z,0.00
2018-02-25T11:26:45.212Z,0.10
2018-02-25T11:29:17.293Z,0.00
2018-02-25T11:31:49.554Z,0.00
2018-02-25T11:34:20.893Z,0.10
2018-02-25T11:36:52.652Z,1.00
2018-02-25T11:39:30.533Z,1.20
2018-02-25T11:42:04.052Z,1.20
2018-02-25T11:44:35.594Z,1.70
2018-02-25T11:47:09.834Z,1.90
2018-02-25T11:49:43.433Z,1.90
2018-02-25T11:52:17.332Z,1.70
2018-02-25T11:54:49.092Z,1.80
2018-02-25T11:57:21.974Z,1.80
2018-02-25T11:59:54.453Z,2.20
2018-02-25T12:02:25.573Z,2.10
2018-02-25T12:04:56.010Z,2.10
2018-02-25T12:07:27.073Z,2.20
2018-02-25T12:09:59.232Z,2.60
2018-02-25T12:12:30.052Z,2.60
2018-02-25T12:15:01.552Z,2.30
2018-02-25T12:17:34.074Z,2.00
2018-02-25T12:20:04.496Z,2.00
2018-02-25T12:22:35.652Z,1.80
2018-02-25T12:25:07.811Z,1.70
2018-02-25T12:27:38.952Z,1.70
2018-02-25T12:30:14.392Z,1.60
2018-02-25T12:32:46.252Z,1.40
2018-02-25T12:35:17.553Z,1.30
2018-02-25T12:37:52.952Z,1.00
2018-02-25T12:40:26.032Z,0.80
2018-02-25T12:43:01.693Z,0.80
2018-02-25T12:45:34.273Z,0.90
2018-02-25T12:48:06.112Z,0.70
2018-02-25T12:50:38.292Z,0.60
2018-02-25T12:53:10.252Z,0.60
2018-02-25T12:55:41.172Z,0.50
2018-02-25T12:58:12.447Z,0.60
2018-02-25T13:00:44.393Z,0.40
2018-02-25T13:03:19.640Z,0.30
2018-02-25T13:05:51.292Z,0.10
2018-02-25T13:08:22.592Z,-0.20
2018-02-25T13:10:54.713Z,-0.10
2018-02-25T13:13:26.672Z,0.00
2018-02-25T13:16:00.373Z,-0.20
2018-02-25T13:18:33.452Z,-0.20
2018-02-25T13:21:05.312Z,-0.10
2018-02-25T13:23:36.752Z,-0.20
2018-02-25T13:26:09.592Z,-0.20
2018-02-25T13:28:43.352Z,-0.20
2018-02-25T13:31:17.053Z,-0.20
2018-02-25T13:33:48.815Z,-0.10
2018-02-25T13:36:24.952Z,-0.20
2018-02-25T13:38:58.153Z,-0.20
2018-02-25T13:41:30.614Z,-0.30
2018-02-25T13:44:01.673Z,-0.50
2018-02-25T13:46:36.913Z,-0.30
2018-02-25T13:49:08.973Z,-0.50
2018-02-25T13:51:41.352Z,-0.50
2018-02-25T13:54:14.112Z,-0.40
2018-02-25T13:56:47.112Z,-0.50
2018-02-25T13:59:18.754Z,-0.70
2018-02-25T14:01:53.092Z,-0.70
2018-02-25T14:04:27.492Z,-0.80
2018-02-25T14:06:58.591Z,-0.80
2018-02-25T14:09:30.292Z,-0.70
2018-02-25T14:12:01.954Z,-0.70
2018-02-25T14:14:34.338Z,-0.80
2018-02-25T14:17:06.553Z,-0.90
2018-02-25T14:19:48.552Z,-1.00
2018-02-25T14:22:21.553Z,-0.70
2018-02-25T14:24:53.533Z,-0.60
2018-02-25T14:27:24.072Z,-0.70
2018-02-25T14:29:56.132Z,-0.50
2018-02-25T14:32:30.032Z,-0.50
2018-02-25T14:35:01.292Z,-0.60
2018-02-25T14:37:31.912Z,-0.60
2018-02-25T14:40:03.056Z,-0.50
2018-02-25T14:42:34.812Z,-0.40
2018-02-25T14:45:06.673Z,-0.70
2018-02-25T14:47:45.572Z,-0.80
2018-02-25T14:50:20.012Z,-0.80
2018-02-25T14:52:51.254Z,-0.80
2018-02-25T14:55:23.213Z,-0.90
2018-02-25T14:57:56.312Z,-0.70
2018-02-25T15:00:29.191Z,-0.60
2018-02-25T15:03:01.052Z,-0.80
2018-02-25T15:05:32.573Z,-0.70
2018-02-25T15:08:04.573Z,-0.60
2018-02-25T15:10:35.193Z,-0.60
2018-02-25T15:13:07.577Z,-0.70
2018-02-25T15:15:39.552Z,-0.70
2018-02-25T15:18:15.573Z,-0.60
2018-02-25T15:20:49.495Z,-0.60
2018-02-25T15:23:21.033Z,-0.80
2018-02-25T15:25:51.872Z,-0.80
2018-02-25T15:28:22.834Z,-1.00
2018-02-25T15:30:58.253Z,-1.10
2018-02-25T15:33:29.513Z,-1.00
2018-02-25T15:36:01.353Z,-1.00
2018-02-25T15:38:35.572Z,-1.00
2018-02-25T15:41:08.252Z,-1.00
2018-02-25T15:43:39.494Z,-1.00
2018-02-25T15:46:14.133Z,-1.00
2018-02-25T15:48:46.592Z,-1.00
2018-02-25T15:51:18.272Z,-1.00
2018-02-25T15:53:50.232Z,-0.90
2018-02-25T15:56:23.214Z,-0.90
2018-02-25T15:58:55.472Z,-1.10
2018-02-25T16:01:26.579Z,-1.20
2018-02-25T16:03:58.792Z,-1.20
2018-02-25T16:06:30.951Z,-1.20
2018-02-25T16:09:02.292Z,-1.20
2018-02-25T16:11:36.412Z,-1.30
2018-02-25T16:14:08.473Z,-1.20
2018-02-25T16:16:41.552Z,-1.10
2018-02-25T16:19:14.573Z,-1.10
2018-02-25T16:21:46.574Z,-1.00
2018-02-25T16:24:17.333Z,-1.00
2018-02-25T16:26:49.716Z,-1.00
2018-02-25T16:29:21.972Z,-1.20
2018-02-25T16:31:53.113Z,-1.20
2018-02-25T16:34:25.193Z,-1.30
2018-02-25T16:36:56.953Z,-1.40
2018-02-25T16:39:28.394Z,-1.50
2018-02-25T16:42:01.992Z,-1.50
2018-02-25T16:44:33.953Z,-1.70
2018-02-25T16:47:08.074Z,-1.50
2018-02-25T16:49:40.034Z,-1.50
2018-02-25T16:52:12.513Z,-1.40
2018-02-25T16:54:45.173Z,-1.30
2018-02-25T16:57:15.912Z,-1.30
2018-02-25T16:59:47.255Z,-1.50
2018-02-25T17:02:22.292Z,-1.60
2018-02-25T17:04:54.632Z,-1.70
2018-02-25T17:07:25.813Z,-1.70
2018-02-25T17:10:02.594Z,-1.70
2018-02-25T17:12:36.092Z,-1.70
2018-02-25T17:15:08.252Z,-1.90
2018-02-25T17:17:40.014Z,-1.80
2018-02-25T17:20:12.373Z,-1.90
2018-02-25T17:22:44.532Z,-2.00
2018-02-25T17:25:17.736Z,-2.00
2018-02-25T17:27:49.894Z,-1.70
2018-02-25T17:30:21.593Z,-1.90
2018-02-25T17:32:53.514Z,-1.80
2018-02-25T17:35:25.633Z,-1.70
2018-02-25T17:37:56.735Z,-1.80
2018-02-25T17:40:28.173Z,-2.00
2018-02-25T17:43:00.553Z,-2.00
2018-02-25T17:45:31.692Z,-2.10
2018-02-25T17:48:03.953Z,-2.00
2018-02-25T17:50:36.014Z,-2.00
2018-02-25T17:53:07.612Z,-2.00
2018-02-25T17:55:40.474Z,-1.90
2018-02-25T17:58:10.673Z,-1.80
2018-02-25T18:00:45.613Z,-2.10
2018-02-25T18:03:17.993Z,-2.20
2018-02-25T18:05:51.593Z,-2.10
2018-02-25T18:08:23.612Z,-2.10
2018-02-25T18:10:55.912Z,-2.30
2018-02-25T18:13:28.913Z,-2.40
2018-02-25T18:16:00.134Z,-2.50
2018-02-25T18:18:31.993Z,-2.50
2018-02-25T18:21:03.852Z,-2.50
2018-02-25T18:23:37.052Z,-2.60
2018-02-25T18:26:08.193Z,-2.60
2018-02-25T18:28:41.075Z,-2.50
2018-02-25T18:31:13.132Z,-2.50
2018-02-25T18:33:46.372Z,-2.50
2018-02-25T18:36:17.274Z,-2.40
2018-02-25T18:38:48.592Z,-2.60
2018-02-25T18:41:20.273Z,-2.70
2018-02-25T18:43:51.834Z,-2.80
2018-02-25T18:46:31.173Z,-2.80
2018-02-25T18:49:02.714Z,-2.90
2018-02-25T18:51:33.852Z,-2.90
2018-02-25T18:54:06.432Z,-2.90
2018-02-25T18:56:39.113Z,-2.90
2018-02-25T18:59:10.873Z,-2.90
2018-02-25T19:01:42.732Z,-2.90
2018-02-25T19:04:16.587Z,-3.10
2018-02-25T19:06:49.234Z,-3.10
2018-02-25T19:09:21.472Z,-3.20
2018-02-25T19:11:54.633Z,-3.10
2018-02-25T19:14:31.612Z,-3.10
2018-02-25T19:17:03.292Z,-3.20
2018-02-25T19:19:34.634Z,-4.30
2018-02-25T19:22:07.014Z,-3.30
2018-02-25T19:24:39.292Z,-3.40
2018-02-25T19:27:11.353Z,-3.40
2018-02-25T19:29:44.233Z,-3.40
2018-02-25T19:32:19.173Z,-3.30
2018-02-25T19:34:50.117Z,-3.50
2018-02-25T19:37:28.212Z,-3.60
2018-02-25T19:40:04.173Z,-3.60
2018-02-25T19:42:35.912Z,-3.60
2018-02-25T19:45:08.192Z,-3.70
2018-02-25T19:47:41.273Z,-3.70
2018-02-25T19:50:21.615Z,-3.60
2018-02-25T19:52:54.612Z,-3.60
2018-02-25T19:55:32.433Z,-3.70
2018-02-25T19:58:03.576Z,-4.40
2018-02-25T20:00:35.532Z,-3.70
2018-02-25T20:03:06.373Z,-3.70
2018-02-25T20:05:37.814Z,-3.80
2018-02-25T20:08:08.432Z,-3.80
2018-02-25T20:10:40.913Z,-3.90
2018-02-25T20:13:18.713Z,-4.00
2018-02-25T20:15:50.573Z,-4.00
2018-02-25T20:18:25.716Z,-4.00
2018-02-25T20:20:56.753Z,-4.00
2018-02-25T20:23:28.911Z,-4.10
2018-02-25T20:26:04.051Z,-4.10
2018-02-25T20:28:35.591Z,-4.10
2018-02-25T20:31:06.531Z,-4.10
2018-02-25T20:33:37.472Z,-4.10
2018-02-25T20:36:09.431Z,-4.00
2018-02-25T20:38:45.594Z,-4.20
2018-02-25T20:41:16.332Z,-4.20
2018-02-25T20:43:48.291Z,-4.20
2018-02-25T20:46:20.051Z,-4.20
2018-02-25T20:48:59.610Z,-4.20
2018-02-25T20:51:31.150Z,-4.20
2018-02-25T20:54:09.612Z,-4.20
2018-02-25T20:56:44.611Z,-4.20
2018-02-25T20:59:16.851Z,-4.40
2018-02-25T21:01:48.412Z,-4.30
2018-02-25T21:04:21.611Z,-4.30
2018-02-25T21:06:53.879Z,-4.30
2018-02-25T21:09:26.570Z,-4.30
2018-02-25T21:11:57.791Z,-4.40
2018-02-25T21:14:29.150Z,-4.40
2018-02-25T21:17:01.411Z,-4.20
2018-02-25T21:19:32.151Z,-4.30
2018-02-25T21:22:04.711Z,-4.40
2018-02-25T21:24:37.095Z,-4.40
2018-02-25T21:27:15.612Z,-4.40
2018-02-25T21:29:47.351Z,-4.40
2018-02-25T21:32:20.871Z,-4.30
2018-02-25T21:34:53.130Z,-4.20
2018-02-25T21:37:25.091Z,-4.20
2018-02-25T21:39:57.051Z,-4.20
2018-02-25T21:42:28.631Z,-4.10
2018-02-25T21:45:02.092Z,-4.10
2018-02-25T21:47:36.012Z,-4.00
2018-02-25T21:50:08.634Z,-4.10
2018-02-25T21:52:46.596Z,-4.00
2018-02-25T21:55:18.956Z,-4.10
2018-02-25T21:57:55.930Z,-4.00
2018-02-25T22:00:33.431Z,-4.10
2018-02-25T22:03:11.010Z,-4.00
2018-02-25T22:05:43.591Z,-4.00
2018-02-25T22:08:15.033Z,-4.00
2018-02-25T22:10:46.611Z,-3.90
2018-02-25T22:13:20.912Z,-3.90
2018-02-25T22:15:54.931Z,-4.10
2018-02-25T22:18:25.850Z,-4.00
2018-02-25T22:20:57.011Z,-4.00
2018-02-25T22:23:28.350Z,-4.00
2018-02-25T22:25:59.493Z,-4.10
2018-02-25T22:28:31.771Z,-4.00
2018-02-25T22:31:04.031Z,-4.00
2018-02-25T22:33:35.490Z,-5.10
2018-02-25T22:36:06.732Z,-4.10
2018-02-25T22:38:38.651Z,-4.10
2018-02-25T22:41:10.851Z,-4.10
2018-02-25T22:43:45.591Z,-4.80
2018-02-25T22:46:19.814Z,-4.10
2018-02-25T22:48:50.950Z,-4.10
2018-02-25T22:51:22.791Z,-3.90
2018-02-25T22:53:54.731Z,-3.80
2018-02-25T22:56:27.631Z,-3.80
2018-02-25T22:58:58.590Z,-3.80
2018-02-25T23:01:31.190Z,-3.60
2018-02-25T23:04:05.071Z,-3.60
2018-02-25T23:06:36.931Z,-3.40
2018-02-25T23:09:10.311Z,-3.30
2018-02-25T23:11:44.730Z,-3.10
2018-02-25T23:14:16.590Z,-3.10
2018-02-25T23:16:54.191Z,-3.10
2018-02-25T23:19:24.810Z,-3.30
2018-02-25T23:21:58.311Z,-3.30
2018-02-25T23:24:30.391Z,-3.30
2018-02-25T23:27:02.351Z,-3.30
2018-02-25T23:29:36.050Z,-3.10
2018-02-25T23:32:13.730Z,-3.10
2018-02-25T23:34:44.791Z,-3.10
2018-02-25T23:37:16.750Z,-3.40
2018-02-25T23:39:47.990Z,-3.40
2018-02-25T23:42:26.510Z,-3.40
2018-02-25T23:44:58.791Z,-3.50
2018-02-25T23:47:30.331Z,-3.40
2018-02-25T23:50:03.093Z,-3.30
2018-02-25T23:52:34.459Z,-3.20
2018-02-25T23:55:12.152Z,-3.20
2018-02-25T23:57:43.651Z,-3.10
